tititudorancea.com
Station Historical Data
Daily Summary for February 11, 2018 Units:  Metric    English   Both
« Previous Day
Next Day »
Daily Weekly Monthly Yearly Custom
  High: Low: Average:
Temperature: -17.8 °C 10.1 °C 15.6 °C
Dew Point: -17.8 °C 7.3 °C 9.3 °C
Humidity: Humidity % 43 % 69 %
Wind Speed: 0 km/h 0 km/h 9.2 km/h
Wind Gust: 0 km/h - -
Wind:- - SW
Pressure: 0 hPa 1006 hPa -
Precipitation: 0 mm    
Historical Graphs
 
 
Ararat weather Find more about Weather in Ararat, AU


 



 


Tabular Data for February 11, 2018
Time Temperature Dew Point Pressure Wind Wind Speed Wind Gust Humidity Rainfall Rate (Hourly)
-17.8 °C -17.8 °C 0 hPa Calm     Humidity % 0 mm
00:04 14.6 °C 11.2 °C 1006.3 hPa SSW 10.3 km/h 16.1 km/h 80 % 0 mm
00:09 14.5 °C 11.1 °C 1006.3 hPa SSW 11.3 km/h 18.5 km/h 80 % 0 mm
00:14 14.5 °C 11.1 °C 1006.3 hPa SSW 10.8 km/h 18.5 km/h 80 % 0 mm
00:19 14.5 °C 11.3 °C 1006.7 hPa South 7.6 km/h 14.8 km/h 81 % 0 mm
00:24 14.5 °C 11.3 °C 1006.3 hPa SSW 11.9 km/h 18.5 km/h 81 % 0 mm
00:29 14.5 °C 11.3 °C 1006.3 hPa SSW 7.2 km/h 13 km/h 81 % 0 mm
00:34 14.5 °C 11.3 °C 1006.3 hPa SSW 8.9 km/h 13 km/h 81 % 0 mm
00:39 14.5 °C 11.3 °C 1006.3 hPa North 7.6 km/h 13 km/h 81 % 0 mm
00:44 14.4 °C 11.2 °C 1006.3 hPa SSW 5.6 km/h 9.3 km/h 81 % 0 mm
00:49 14.4 °C 11.3 °C 1006.3 hPa SSW 2.7 km/h 5.6 km/h 82 % 0 mm
00:54 14.3 °C 11.2 °C 1006.3 hPa SSW 3.4 km/h 6.4 km/h 82 % 0 mm
00:59 14.2 °C 11.1 °C 1006.3 hPa SSW 5.8 km/h 7.4 km/h 82 % 0 mm
01:04 14.1 °C 11.1 °C 1006.3 hPa North 5.8 km/h 5.8 km/h 82 % 0 mm
01:09 13.9 °C 11.1 °C 1006.3 hPa SSW 6.3 km/h 13 km/h 83 % 0 mm
01:14 13.8 °C 10.9 °C 1006.3 hPa North 6.8 km/h 9.3 km/h 83 % 0 mm
01:19 13.7 °C 11 °C 1006.3 hPa North 5.6 km/h 5.6 km/h 84 % 0 mm
01:24 13.7 °C 11 °C 1006.3 hPa North 10.8 km/h 13 km/h 84 % 0 mm
01:29 13.7 °C 11 °C 1006.3 hPa SSW 9.5 km/h 16.7 km/h 84 % 0 mm
01:34 13.7 °C 11 °C 1006.3 hPa SSW 6.6 km/h 8 km/h 84 % 0 mm
01:39 13.6 °C 10.9 °C 1006.3 hPa SSW 5 km/h 11.1 km/h 84 % 0 mm
01:44 13.6 °C 11.1 °C 1006.3 hPa North 8.5 km/h 12.9 km/h 85 % 0 mm
01:49 13.6 °C 11.1 °C 1006.3 hPa North 12.1 km/h 20.9 km/h 85 % 0 mm
01:54 13.6 °C 11.1 °C 1006.3 hPa SSW 10.3 km/h 14.8 km/h 85 % 0 mm
01:59 13.6 °C 11.1 °C 1006.3 hPa SSW 2.6 km/h 5.6 km/h 85 % 0 mm
02:04 13.5 °C 11 °C 1006.3 hPa SSW 1.4 km/h 11.1 km/h 85 % 0 mm
02:09 13.4 °C 10.9 °C 1006.3 hPa SSW 9.7 km/h 14.8 km/h 85 % 0 mm
02:14 13.4 °C 10.9 °C 1006.3 hPa North 5.6 km/h 11.1 km/h 85 % 0 mm
02:19 13.3 °C 11 °C 1006.3 hPa North 4.2 km/h 5.6 km/h 86 % 0 mm
02:24 13.2 °C 10.9 °C 1006.3 hPa SSW 4.7 km/h 9.3 km/h 86 % 0 mm
02:29 13.1 °C 10.8 °C 1006.3 hPa North 6 km/h 16.7 km/h 86 % 0 mm
02:34 13 °C 10.7 °C 1006.3 hPa SSW 3.5 km/h 5.6 km/h 86 % 0 mm
02:39 12.9 °C 10.8 °C 1006.3 hPa North 7.2 km/h 14.8 km/h 87 % 0 mm
02:44 12.9 °C 10.8 °C 1006 hPa SSW 5.8 km/h 9.3 km/h 87 % 0 mm
02:49 12.8 °C 10.7 °C 1006.3 hPa SSW 7.6 km/h 14.8 km/h 87 % 0 mm
02:54 12.8 °C 10.7 °C 1006 hPa SSW 7.7 km/h 14.8 km/h 87 % 0 mm
02:59 12.8 °C 10.8 °C 1006 hPa SSW 5.3 km/h 13 km/h 88 % 0 mm
03:04 12.8 °C 10.8 °C 1006 hPa SSW 7.7 km/h 13 km/h 88 % 0 mm
03:09 12.7 °C 10.8 °C 1006 hPa SSW 8 km/h 8 km/h 88 % 0 mm
03:14 12.7 °C 10.7 °C 1006 hPa SSW 4.5 km/h 13 km/h 88 % 0 mm
03:19 12.6 °C 10.7 °C 1006 hPa SSW 4.5 km/h 11.1 km/h 88 % 0 mm
03:24 12.6 °C 10.7 °C 1006 hPa SSW 4.3 km/h 5.6 km/h 88 % 0 mm
03:29 12.6 °C 10.6 °C 1006 hPa SSW 1.9 km/h 7.4 km/h 88 % 0 mm
03:34 12.4 °C 10.5 °C 1006 hPa North 2.6 km/h 5.6 km/h 88 % 0 mm
03:39 12.2 °C 10.1 °C 1006 hPa SSW 3.1 km/h 5.6 km/h 87 % 0 mm
03:44 12.1 °C 10.1 °C 1006 hPa SSW 1.9 km/h 5.6 km/h 88 % 0 mm
03:49 11.9 °C 9.9 °C 1006 hPa SSW 3.5 km/h 4.8 km/h 88 % 0 mm
03:54 11.8 °C 10 °C 1006 hPa SSW 4 km/h 7.4 km/h 89 % 0 mm
03:59 11.7 °C 9.9 °C 1006 hPa North 5.3 km/h 8 km/h 89 % 0 mm
04:04 11.6 °C 9.8 °C 1006 hPa North 2.4 km/h 7.4 km/h 89 % 0 mm
04:09 11.5 °C 9.7 °C 1006 hPa SSW 4.5 km/h 8 km/h 89 % 0 mm
04:14 11.3 °C 9.6 °C 1006.3 hPa North 3.2 km/h 5.6 km/h 89 % 0 mm
04:19 11.2 °C 9.5 °C 1006 hPa North 2.1 km/h 5.6 km/h 89 % 0 mm
04:24 11.1 °C 9.5 °C 1006 hPa SSW 1.6 km/h 5.6 km/h 90 % 0 mm
04:29 10.9 °C 9.4 °C 1006 hPa North 2.4 km/h 5.6 km/h 90 % 0 mm
04:34 10.9 °C 9.3 °C 1006.3 hPa SSW 2.4 km/h 5.6 km/h 90 % 0 mm
04:39 10.8 °C 9.2 °C 1006 hPa SSW 1.9 km/h 3.7 km/h 90 % 0 mm
04:44 10.7 °C 9.3 °C 1006 hPa SSW 1.4 km/h 5.6 km/h 91 % 0 mm
04:49 10.7 °C 9.3 °C 1006 hPa North 1.8 km/h 5.6 km/h 91 % 0 mm
04:54 10.6 °C 9.2 °C 1006.3 hPa SSW 1.9 km/h 5.6 km/h 91 % 0 mm
04:59 10.5 °C 9.1 °C 1006.3 hPa North 0.2 km/h 1.9 km/h 91 % 0 mm
05:04 10.4 °C 9.1 °C 1006.3 hPa Calm   3.7 km/h 91 % 0 mm
05:09 10.4 °C 9.2 °C 1006.3 hPa Calm     92 % 0 mm
05:14 10.4 °C 9.2 °C 1006.3 hPa Calm     92 % 0 mm
05:19 10.3 °C 9.1 °C 1006.3 hPa North 1.4 km/h 3.7 km/h 92 % 0 mm
05:24 10.3 °C 9.1 °C 1006.3 hPa North 2.7 km/h 3.7 km/h 92 % 0 mm
05:29 10.3 °C 9.1 °C 1006.3 hPa Calm   1.9 km/h 92 % 0 mm
05:34 10.2 °C 9 °C 1006.3 hPa North 0.8 km/h 1.9 km/h 92 % 0 mm
05:39 10.2 °C 8.9 °C 1006.3 hPa SSW 1.1 km/h 3.7 km/h 92 % 0 mm
05:44 10.1 °C 8.9 °C 1006.3 hPa North 3.1 km/h 5.6 km/h 92 % 0 mm
05:49 10.2 °C 8.9 °C 1006.7 hPa SSW 3.7 km/h 5.6 km/h 92 % 0 mm
05:54 10.2 °C 9.2 °C 1006.3 hPa SSW 1.3 km/h 7.4 km/h 93 % 0 mm
05:59 10.4 °C 9.3 °C 1006.7 hPa SSW 6.6 km/h 9.3 km/h 93 % 0 mm
06:04 10.5 °C 9.4 °C 1006.7 hPa North 5.5 km/h 7.4 km/h 93 % 0 mm
06:09 10.6 °C 9.5 °C 1006.7 hPa SSW 5 km/h 7.4 km/h 93 % 0 mm
06:14 10.7 °C 9.6 °C 1006.7 hPa North 3.4 km/h 5.6 km/h 93 % 0 mm
06:19 10.7 °C 9.6 °C 1006.7 hPa SSW 3.5 km/h 5.6 km/h 93 % 0 mm
06:24 10.6 °C 9.5 °C 1006.7 hPa North 1 km/h 5.6 km/h 93 % 0 mm
06:29 10.4 °C 9.3 °C 1006.7 hPa SSW 3.4 km/h 5.6 km/h 93 % 0 mm
06:34 10.4 °C 9.3 °C 1006.7 hPa North 3.1 km/h 5.6 km/h 93 % 0 mm
06:39 10.5 °C 9.4 °C 1006.7 hPa SSW 2.7 km/h 5.6 km/h 93 % 0 mm
06:44 10.6 °C 9.4 °C 1007 hPa North 2.3 km/h 5.6 km/h 93 % 0 mm
06:49 10.6 °C 9.5 °C 1007 hPa SSW 4.5 km/h 5.6 km/h 93 % 0 mm
06:54 10.8 °C 9.8 °C 1007 hPa North 3.4 km/h 5.6 km/h 94 % 0 mm
06:59 10.9 °C 10 °C 1007 hPa SSW 2.9 km/h 3.2 km/h 94 % 0 mm
07:04 11.1 °C 10.1 °C 1007 hPa North 3.2 km/h 5.6 km/h 94 % 0 mm
07:09 11.2 °C 10.2 °C 1007 hPa SSW 5.3 km/h 7.4 km/h 94 % 0 mm
07:14 11.3 °C 10.3 °C 1007 hPa SSW 6.4 km/h 13 km/h 94 % 0 mm
07:19 11.4 °C 10.5 °C 1007 hPa SSW 10.9 km/h 18.5 km/h 94 % 0 mm
07:24 11.5 °C 10.6 °C 1007 hPa SSW 9.2 km/h 14.8 km/h 94 % 0 mm
07:29 11.6 °C 10.7 °C 1007 hPa SSW 10.1 km/h 14.8 km/h 94 % 0 mm
07:35 11.7 °C 10.6 °C 1007.3 hPa SSW 6.3 km/h 13 km/h 93 % 0 mm
07:40 11.9 °C 10.9 °C 1007.3 hPa North 12.4 km/h 18.5 km/h 94 % 0 mm
07:45 12.1 °C 11 °C 1007.3 hPa North 7.1 km/h 16.7 km/h 93 % 0 mm
07:50 12.2 °C 11.1 °C 1007.3 hPa SSW 10 km/h 16.7 km/h 93 % 0 mm
07:55 12.3 °C 11.2 °C 1007.3 hPa SSW 4.8 km/h 7.4 km/h 93 % 0 mm
08:00 12.4 °C 11.3 °C 1007.7 hPa North 7.9 km/h 16.7 km/h 93 % 0 mm
08:05 12.5 °C 11.2 °C 1007.7 hPa SSW 5.5 km/h 14.8 km/h 92 % 0 mm
08:10 12.7 °C 11.4 °C 1007.7 hPa SSW 1.1 km/h 3.7 km/h 92 % 0 mm
08:15 12.7 °C 11.4 °C 1007.7 hPa SSW 8.5 km/h 14.8 km/h 92 % 0 mm
08:20 12.9 °C 11.6 °C 1007.7 hPa SSW 8.9 km/h 13 km/h 92 % 0 mm
08:25 13.1 °C 11.6 °C 1007.7 hPa SSW 6.4 km/h 14.8 km/h 91 % 0 mm
08:30 13.2 °C 11.8 °C 1007.7 hPa North 13.8 km/h 18.5 km/h 91 % 0 mm
08:35 13.5 °C 12.1 °C 1007.7 hPa South 9.7 km/h 16.1 km/h 91 % 0 mm
08:40 13.7 °C 12.1 °C 1007.7 hPa North 13 km/h 20.4 km/h 90 % 0 mm
08:45 13.8 °C 12.1 °C 1007.7 hPa South 16.7 km/h 18.5 km/h 89 % 0 mm
08:50 13.8 °C 11.9 °C 1007.7 hPa South 11.9 km/h 18.5 km/h 88 % 0 mm
08:55 13.9 °C 11.9 °C 1008 hPa North 12.4 km/h 18.5 km/h 88 % 0 mm
09:00 14.1 °C 12.1 °C 1008 hPa North 8.9 km/h 14.8 km/h 88 % 0 mm
09:05 14.2 °C 12.1 °C 1008 hPa South 11.6 km/h 14.8 km/h 87 % 0 mm
09:10 14.5 °C 12.3 °C 1008 hPa South 8.5 km/h 13 km/h 87 % 0 mm
09:15 14.9 °C 12.4 °C 1008 hPa SSW 14.5 km/h 24.1 km/h 85 % 0 mm
09:20 15.3 °C 12.1 °C 1008.4 hPa South 16.6 km/h 22.2 km/h 81 % 0 mm
09:25 15.6 °C 12 °C 1008.4 hPa South 13.5 km/h 19.3 km/h 79 % 0 mm
09:30 15.7 °C 12.1 °C 1008 hPa South 11.3 km/h 17.7 km/h 79 % 0 mm
09:35 16.2 °C 12 °C 1008 hPa SSE 12.4 km/h 22.5 km/h 76 % 0 mm
09:40 16.4 °C 11.6 °C 1008 hPa North 14.3 km/h 24.1 km/h 73 % 0 mm
09:45 15.9 °C 11.1 °C 1008.4 hPa South 13.5 km/h 20.4 km/h 73 % 0 mm
09:50 15.7 °C 11.3 °C 1008.4 hPa North 13.7 km/h 18.5 km/h 75 % 0 mm
09:55 15.5 °C 11.3 °C 1008.4 hPa South 11.3 km/h 18.5 km/h 76 % 0 mm
10:00 15.4 °C 11.2 °C 1008.4 hPa SSW 14.6 km/h 20.4 km/h 76 % 0 mm
10:05 15.7 °C 11.1 °C 1008.7 hPa South 12.7 km/h 24.1 km/h 74 % 0 mm
10:10 15.9 °C 10.6 °C 1008.7 hPa South 16.1 km/h 27.8 km/h 71 % 0 mm
10:15 16.2 °C 10.3 °C 1008.7 hPa SSW 9.8 km/h 17.7 km/h 68 % 0 mm
10:20 16.5 °C 10.1 °C 1008.7 hPa North 5.6 km/h 11.1 km/h 66 % 0 mm
10:25 16.8 °C 10.2 °C 1008.7 hPa North 7.6 km/h 13 km/h 65 % 0 mm
10:30 16.8 °C 10 °C 1008.7 hPa South 12.7 km/h 20.9 km/h 64 % 0 mm
10:35 16.7 °C 9.8 °C 1008.7 hPa South 15.9 km/h 33.3 km/h 64 % 0 mm
10:40 16.6 °C 9.8 °C 1009 hPa South 11.1 km/h 18.5 km/h 64 % 0 mm
10:45 16.6 °C 10 °C 1009 hPa SSW 10.6 km/h 24.1 km/h 65 % 0 mm
10:50 16.7 °C 10.1 °C 1009 hPa SSW 11.7 km/h 18.5 km/h 65 % 0 mm
10:55 16.7 °C 9.9 °C 1009 hPa SSW 14.3 km/h 19.3 km/h 64 % 0 mm
11:00 16.7 °C 9.9 °C 1009 hPa SSW 9 km/h 17.7 km/h 64 % 0 mm
11:05 16.8 °C 9.9 °C 1009 hPa South 14.6 km/h 24.1 km/h 64 % 0 mm
11:10 16.9 °C 9.8 °C 1009 hPa South 15.1 km/h 18.5 km/h 63 % 0 mm
11:15 16.9 °C 9.8 °C 1009 hPa SSW 15.8 km/h 24.1 km/h 63 % 0 mm
11:20 16.9 °C 10.6 °C 1009 hPa SSW 15 km/h 24.1 km/h 66 % 0 mm
11:25 16.8 °C 10.8 °C 1009 hPa North 12.2 km/h 18.5 km/h 68 % 0 mm
11:30 16.5 °C 10.8 °C 1009.4 hPa SSW 17.7 km/h 22.2 km/h 69 % 0 mm
11:35 16.5 °C 10.3 °C 1009.4 hPa SSW 16.7 km/h 22.2 km/h 67 % 0 mm
11:40 16.7 °C 10.5 °C 1009.4 hPa SSW 10.6 km/h 16.7 km/h 67 % 0 mm
11:45 16.9 °C 10.3 °C 1009.4 hPa North 7.7 km/h 11.1 km/h 65 % 0 mm
11:50 17.2 °C 10.1 °C 1009.4 hPa SSW 11.6 km/h 18.5 km/h 63 % 0 mm
11:55 17.1 °C 10.9 °C 1009.4 hPa SW 10.6 km/h 14.8 km/h 67 % 0 mm
12:00 17.2 °C 11 °C 1009 hPa SSW 10.9 km/h 18.5 km/h 67 % 0 mm
12:05 17.1 °C 10.9 °C 1009 hPa SSW 10.8 km/h 18.5 km/h 67 % 0 mm
12:10 17 °C 10.8 °C 1009 hPa SSW 9.2 km/h 11.1 km/h 67 % 0 mm
12:15 16.6 °C 10.9 °C 1009.4 hPa South 13.2 km/h 17.7 km/h 69 % 0 mm
12:20 16.4 °C 10.9 °C 1009 hPa SSW 11.6 km/h 18.5 km/h 70 % 0 mm
12:25 16.6 °C 10.8 °C 1009 hPa SW 9.8 km/h 13 km/h 69 % 0 mm
12:30 16.8 °C 11.1 °C 1009 hPa SSW 11.1 km/h 16.7 km/h 69 % 0 mm
12:35 17.1 °C 10.9 °C 1009 hPa SSW 5.3 km/h 9.3 km/h 67 % 0 mm
12:40 17.5 °C 10.6 °C 1008.7 hPa SSW 7.7 km/h 17.7 km/h 64 % 0 mm
12:45 17.8 °C 10.4 °C 1008.7 hPa SSW 8 km/h 13 km/h 62 % 0 mm
12:50 18 °C 10.4 °C 1009 hPa SW 15.3 km/h 20.4 km/h 61 % 0 mm
12:55 17.8 °C 10.2 °C 1008.7 hPa SSW 12.1 km/h 18.5 km/h 61 % 0 mm
13:00 17.7 °C 9.8 °C 1008.7 hPa SW 10.6 km/h 18.5 km/h 60 % 0 mm
13:05 17.7 °C 9.6 °C 1008.7 hPa South 8.2 km/h 18.5 km/h 59 % 0 mm
13:10 17.9 °C 9.8 °C 1008.7 hPa SSW 13 km/h 19.3 km/h 59 % 0 mm
13:15 18.1 °C 9.4 °C 1008.7 hPa South 13.5 km/h 18.5 km/h 57 % 0 mm
13:20 18.4 °C 9.5 °C 1008.4 hPa SSW 12.1 km/h 18.5 km/h 56 % 0 mm
13:25 18.7 °C 9.2 °C 1008.7 hPa SSW 14 km/h 18.5 km/h 54 % 0 mm
13:30 18.7 °C 9.2 °C 1008.4 hPa South 8.5 km/h 11.3 km/h 54 % 0 mm
13:35 19 °C 9.2 °C 1008.4 hPa South 14.2 km/h 18.5 km/h 53 % 0 mm
13:40 19.5 °C 9.1 °C 1008.4 hPa SW 11.4 km/h 14.8 km/h 51 % 0 mm
13:45 19.1 °C 8.7 °C 1008.4 hPa SW 12.9 km/h 18.5 km/h 51 % 0 mm
13:50 19.1 °C 8.4 °C 1008 hPa SW 16.1 km/h 20.9 km/h 50 % 0 mm
13:55 19.4 °C 8.7 °C 1008 hPa SW 10.8 km/h 18.5 km/h 50 % 0 mm
14:00 19.3 °C 8.6 °C 1008.4 hPa South 20.1 km/h 22.2 km/h 50 % 0 mm
14:05 19.3 °C 8.7 °C 1008.4 hPa South 10.6 km/h 16.7 km/h 50 % 0 mm
14:10 19.7 °C 8.7 °C 1008.4 hPa SSW 15.3 km/h 20.4 km/h 49 % 0 mm
14:15 20.2 °C 8.8 °C 1008 hPa North 11.6 km/h 18.5 km/h 48 % 0 mm
14:20 20.1 °C 8.4 °C 1008 hPa SSE 8.9 km/h 18.5 km/h 47 % 0 mm
14:25 19.9 °C 8.3 °C 1008 hPa South 9 km/h 16.7 km/h 47 % 0 mm
14:30 20 °C 8.7 °C 1008 hPa SSW 13.4 km/h 20.4 km/h 48 % 0 mm
14:35 19.8 °C 8.4 °C 1008 hPa SW 12.1 km/h 16.7 km/h 48 % 0 mm
14:40 19.8 °C 8.5 °C 1008 hPa SSW 11.6 km/h 22.5 km/h 48 % 0 mm
14:45 19.9 °C 8.2 °C 1008 hPa North 16.6 km/h 20.4 km/h 47 % 0 mm
14:50 20.1 °C 8.4 °C 1008 hPa SW 11.7 km/h 18.5 km/h 47 % 0 mm
14:55 20.3 °C 8.9 °C 1008 hPa WSW 12.2 km/h 18.5 km/h 48 % 0 mm
15:00 20.2 °C 8.8 °C 1008 hPa North 11.3 km/h 16.7 km/h 48 % 0 mm
15:05 19.9 °C 8.6 °C 1007.7 hPa South 8.9 km/h 13 km/h 48 % 0 mm
15:10 19.7 °C 8.7 °C 1008 hPa South 5.8 km/h 11.1 km/h 49 % 0 mm
15:15 20.4 °C 8.7 °C 1007.7 hPa North 12.9 km/h 18.5 km/h 47 % 0 mm
15:20 20.1 °C 8.8 °C 1007.7 hPa South 10.6 km/h 22.2 km/h 48 % 0 mm
15:25 20.2 °C 8.6 °C 1007.7 hPa SSW 17.4 km/h 22.5 km/h 47 % 0 mm
15:30 20 °C 8.7 °C 1007.7 hPa SSW 14 km/h 16.7 km/h 48 % 0 mm
15:35 19.8 °C 8.5 °C 1007.7 hPa SSW 15 km/h 25.9 km/h 48 % 0 mm
15:40 19.8 °C 8.5 °C 1007.7 hPa South 8.9 km/h 29.6 km/h 48 % 0 mm
15:45 19.7 °C 8.3 °C 1007.7 hPa SW 9.5 km/h 18.5 km/h 48 % 0 mm
15:50 20.3 °C 8.9 °C 1007.7 hPa North 13.2 km/h 16.1 km/h 48 % 0 mm
15:55 20.7 °C 8.6 °C 1007.7 hPa SSW 18.5 km/h 24.1 km/h 46 % 0 mm
16:00 20.3 °C 8.6 °C 1007.7 hPa SSW 17.2 km/h 24.1 km/h 47 % 0 mm
16:05 20.2 °C 8.5 °C 1007.3 hPa South 13.4 km/h 24.1 km/h 47 % 0 mm
16:10 20.2 °C 8.6 °C 1007.3 hPa South 9.7 km/h 11.1 km/h 47 % 0 mm
16:15 20.8 °C 8.4 °C 1007.3 hPa West 12.6 km/h 18.5 km/h 45 % 0 mm
16:20 21 °C 8.6 °C 1007.3 hPa SSW 10.3 km/h 16.7 km/h 45 % 0 mm
16:25 21.2 °C 8.8 °C 1007.3 hPa SSW 8.5 km/h 14.5 km/h 45 % 0 mm
16:30 21.5 °C 8.7 °C 1007.3 hPa SSW 11.3 km/h 17.7 km/h 44 % 0 mm
16:35 21.7 °C 8.6 °C 1007.3 hPa South 11.1 km/h 24.1 km/h 43 % 0 mm
16:40 21.3 °C 8.2 °C 1007.3 hPa SSW 14.6 km/h 22.2 km/h 43 % 0 mm
16:45 20.9 °C 8.2 °C 1007.3 hPa WSW 20.3 km/h 24.1 km/h 44 % 0 mm
16:50 20.7 °C 8 °C 1007.3 hPa SSW 11.3 km/h 19.3 km/h 44 % 0 mm
16:55 20.8 °C 7.7 °C 1007.3 hPa SSW 9.2 km/h 18.5 km/h 43 % 0 mm
17:00 20.7 °C 8 °C 1007.3 hPa SSW 13.7 km/h 18.5 km/h 44 % 0 mm
17:05 20.7 °C 8 °C 1007.3 hPa SSW 12.7 km/h 18.5 km/h 44 % 0 mm
17:10 20.8 °C 8.1 °C 1007.3 hPa SSW 14.6 km/h 27.8 km/h 44 % 0 mm
17:15 20.8 °C 8.1 °C 1007.3 hPa SSW 12.7 km/h 18.5 km/h 44 % 0 mm
17:20 20.7 °C 8 °C 1007.3 hPa SSW 15.9 km/h 27.8 km/h 44 % 0 mm
17:25 20.4 °C 7.8 °C 1007.3 hPa South 18 km/h 24.1 km/h 44 % 0 mm
17:30 20.6 °C 7.9 °C 1007.3 hPa SW 14.5 km/h 16.7 km/h 44 % 0 mm
17:35 20.6 °C 7.9 °C 1007.3 hPa South 9.7 km/h 18.5 km/h 44 % 0 mm
17:40 20.7 °C 7.7 °C 1007.3 hPa SSW 16.4 km/h 18.5 km/h 43 % 0 mm
17:45 20.6 °C 7.6 °C 1007.3 hPa SSW 11.9 km/h 19.3 km/h 43 % 0 mm
17:50 20.6 °C 7.9 °C 1007.3 hPa SSW 9.8 km/h 14.8 km/h 44 % 0 mm
17:55 20.7 °C 8 °C 1007.3 hPa SSW 9.7 km/h 16.7 km/h 44 % 0 mm
18:00 20.8 °C 8.1 °C 1007.3 hPa SW 14.8 km/h 22.5 km/h 44 % 0 mm
18:05 20.5 °C 7.8 °C 1007.3 hPa North 12.4 km/h 18.5 km/h 44 % 0 mm
18:10 20.5 °C 7.5 °C 1007.3 hPa SSW 10.9 km/h 18.5 km/h 43 % 0 mm
18:15 20.5 °C 7.8 °C 1007.3 hPa SW 11.9 km/h 16.1 km/h 44 % 0 mm
18:20 20.4 °C 7.4 °C 1007.3 hPa SSW 14.6 km/h 18.5 km/h 43 % 0 mm
18:25 20.3 °C 7.3 °C 1007.3 hPa SW 16.1 km/h 18.5 km/h 43 % 0 mm
18:30 20.2 °C 7.6 °C 1007.3 hPa SSE 14.8 km/h 20.9 km/h 44 % 0 mm
18:35 20.3 °C 7.6 °C 1007.3 hPa SW 10.5 km/h 16.7 km/h 44 % 0 mm
18:40 20.3 °C 7.7 °C 1007.3 hPa SW 8 km/h 12.9 km/h 44 % 0 mm
18:45 20.2 °C 7.5 °C 1007.3 hPa SW 12.7 km/h 17.7 km/h 44 % 0 mm
18:51 19.8 °C 7.6 °C 1007.7 hPa SSW 16.1 km/h 27.8 km/h 45 % 0 mm
18:56 19.6 °C 7.7 °C 1007.3 hPa North 13.7 km/h 29.6 km/h 46 % 0 mm
19:01 19.3 °C 7.4 °C 1007.3 hPa SSW 14.8 km/h 25.7 km/h 46 % 0 mm
19:06 19.1 °C 7.5 °C 1007.3 hPa SSW 18.8 km/h 20.4 km/h 47 % 0 mm
19:11 18.9 °C 7.3 °C 1007.3 hPa South 11.7 km/h 20.4 km/h 47 % 0 mm
19:16 19 °C 7.4 °C 1007.3 hPa North 2.3 km/h 7.4 km/h 47 % 0 mm
19:21 19.3 °C 7.7 °C 1007.3 hPa South 13.7 km/h 18.5 km/h 47 % 0 mm
19:26 19.2 °C 7.3 °C 1007.7 hPa SSW 14.3 km/h 18.5 km/h 46 % 0 mm
19:31 18.8 °C 7.3 °C 1007.3 hPa SSW 9.7 km/h 14.8 km/h 47 % 0 mm
19:36 18.9 °C 7.6 °C 1007.7 hPa South 17.2 km/h 22.2 km/h 48 % 0 mm
19:41 18.8 °C 7.9 °C 1007.7 hPa North 12.7 km/h 18.5 km/h 49 % 0 mm
19:46 18.8 °C 7.9 °C 1007.7 hPa North 10.1 km/h 14.8 km/h 49 % 0 mm
19:51 18.6 °C 7.6 °C 1007.7 hPa South 10.3 km/h 14.8 km/h 49 % 0 mm
19:56 18.3 °C 7.7 °C 1007.7 hPa SSW 6.1 km/h 11.1 km/h 50 % 0 mm
20:01 18 °C 7.7 °C 1008 hPa SSW 6.3 km/h 11.1 km/h 51 % 0 mm
20:06 17.8 °C 7.8 °C 1008 hPa South 10.6 km/h 14.5 km/h 52 % 0 mm
20:11 17.6 °C 7.6 °C 1008 hPa SSW 8.5 km/h 17.7 km/h 52 % 0 mm
20:16 17.4 °C 7.8 °C 1008 hPa SSW 10.9 km/h 18.5 km/h 53 % 0 mm
20:21 17.3 °C 7.7 °C 1008.4 hPa South 7.1 km/h 16.1 km/h 53 % 0 mm
20:26 17.2 °C 7.8 °C 1008.4 hPa South 8.7 km/h 13 km/h 54 % 0 mm
20:31 17 °C 7.9 °C 1008.4 hPa SSW 11.6 km/h 19.3 km/h 55 % 0 mm
20:36 16.8 °C 8 °C 1008.4 hPa South 9.5 km/h 16.1 km/h 56 % 0 mm
20:41 16.7 °C 7.8 °C 1008.4 hPa South 6.9 km/h 13 km/h 56 % 0 mm
20:46 16.4 °C 8.2 °C 1008.7 hPa North 8.9 km/h 13 km/h 58 % 0 mm
20:51 16.3 °C 8 °C 1008.7 hPa North 9.3 km/h 14.8 km/h 58 % 0 mm
20:56 16.1 °C 8.1 °C 1008.7 hPa South 8 km/h 13 km/h 59 % 0 mm
21:01 15.9 °C 8.2 °C 1008.4 hPa South 11.3 km/h 16.7 km/h 60 % 0 mm
21:06 15.8 °C 8.1 °C 1008.4 hPa South 10.5 km/h 14.8 km/h 60 % 0 mm
21:11 15.7 °C 8.2 °C 1008.7 hPa North 6.9 km/h 11.1 km/h 61 % 0 mm
21:16 15.6 °C 8.1 °C 1008.7 hPa South 7.4 km/h 11.3 km/h 61 % 0 mm
21:21 15.4 °C 7.9 °C 1008.7 hPa South 8.5 km/h 14.8 km/h 61 % 0 mm
21:26 15.3 °C 8.1 °C 1009 hPa North 7.7 km/h 11.1 km/h 62 % 0 mm
21:31 15.3 °C 8.1 °C 1009 hPa South 7.1 km/h 13 km/h 62 % 0 mm
21:36 15.2 °C 7.9 °C 1009 hPa South 6.9 km/h 9.3 km/h 62 % 0 mm
21:41 15.1 °C 8.1 °C 1009 hPa North 5.8 km/h 9.3 km/h 63 % 0 mm
21:46 14.9 °C 7.9 °C 1009 hPa South 7.1 km/h 11.1 km/h 63 % 0 mm
21:51 14.9 °C 8.1 °C 1009.4 hPa South 6.9 km/h 11.1 km/h 64 % 0 mm
21:56 14.8 °C 7.8 °C 1009.4 hPa South 5.6 km/h 11.3 km/h 63 % 0 mm
22:01 14.8 °C 8.1 °C 1009.4 hPa SSW 8.2 km/h 16.7 km/h 64 % 0 mm
22:06 14.8 °C 8.1 °C 1009.4 hPa SSW 7.2 km/h 11.3 km/h 64 % 0 mm
22:11 14.8 °C 8.1 °C 1009.4 hPa SSW 8 km/h 13 km/h 64 % 0 mm
22:16 14.8 °C 8.1 °C 1009.7 hPa SSW 6.4 km/h 9.3 km/h 64 % 0 mm
22:21 14.7 °C 7.9 °C 1009.7 hPa SSW 7.7 km/h 9.7 km/h 64 % 0 mm
22:26 14.6 °C 8.1 °C 1009.7 hPa SSW 11.6 km/h 14.8 km/h 65 % 0 mm
22:31 14.5 °C 8 °C 1009.7 hPa SSW 8.7 km/h 12.9 km/h 65 % 0 mm
22:36 14.4 °C 7.9 °C 1009.7 hPa SSW 7.7 km/h 12.9 km/h 65 % 0 mm
22:41 14.4 °C 8.1 °C 1009.7 hPa SSW 7.6 km/h 16.7 km/h 66 % 0 mm
22:46 14.3 °C 8.1 °C 1009.7 hPa SSW 10.6 km/h 11.3 km/h 66 % 0 mm
22:51 14.3 °C 8 °C 1009.7 hPa SSW 6.3 km/h 14.8 km/h 66 % 0 mm
22:56 14.2 °C 8.1 °C 1009.7 hPa SSW 8.5 km/h 13 km/h 67 % 0 mm
23:01 14.1 °C 8.1 °C 1009.7 hPa SSW 10 km/h 16.7 km/h 67 % 0 mm
23:06 14 °C 7.9 °C 1009.4 hPa SSW 8.9 km/h 18.5 km/h 67 % 0 mm
23:11 13.9 °C 8.1 °C 1009.4 hPa SSW 8.7 km/h 14.8 km/h 68 % 0 mm
23:16 13.9 °C 8.1 °C 1009.4 hPa SSW 9.3 km/h 13 km/h 68 % 0 mm
23:21 13.8 °C 8 °C 1009.4 hPa SSW 8.7 km/h 16.7 km/h 68 % 0 mm
23:26 13.8 °C 7.9 °C 1009.4 hPa SSW 9 km/h 13 km/h 68 % 0 mm
23:31 13.7 °C 8.1 °C 1009.4 hPa SSW 7.2 km/h 11.1 km/h 69 % 0 mm
23:36 13.7 °C 8.1 °C 1009.4 hPa SSW 8.7 km/h 18.5 km/h 69 % 0 mm
23:41 13.6 °C 8 °C 1009.4 hPa SSW 7.7 km/h 16.7 km/h 69 % 0 mm
23:46 13.6 °C 8 °C 1009.4 hPa North 9.5 km/h 16.7 km/h 69 % 0 mm
23:51 13.6 °C 8 °C 1009.4 hPa North 10 km/h 11.1 km/h 69 % 0 mm
23:56 13.6 °C 8 °C 1009.4 hPa North 7.4 km/h 11.1 km/h 69 % 0 mm
Ararat Weather
Compliments of Weather Underground - 2.25 mb
Click here to send mail.


ABOUT

Live weather data from Ararat, Victoria, Australia, 3377
Data uploaded from Cumulus every 5 minutes to Weather Underground.
This site then downloads the raw data for formatting and display.
Metric and imperial data can be displayed. Graphs and historical data available.
Includes Sun and Moon times and rain image live from BOM.

Check out Ararat Weather on Facebook, Twitter and Google +

Help support ongoing costs by checking out the ads





Follow @AraratWeather